sensor_id;sensor_type;location;lat;lon;timestamp;temperature;humidity
8563;DHT22;16392;52.508;13.468;2022-09-09T00:01:52;15.00;99.90
8563;DHT22;16392;52.508;13.468;2022-09-09T00:04:26;14.90;99.90
8563;DHT22;16392;52.508;13.468;2022-09-09T00:07:01;14.90;99.90
8563;DHT22;16392;52.508;13.468;2022-09-09T00:09:32;14.90;99.90
8563;DHT22;16392;52.508;13.468;2022-09-09T00:12:10;15.00;99.90
8563;DHT22;16392;52.508;13.468;2022-09-09T00:14:42;14.90;99.90
8563;DHT22;16392;52.508;13.468;2022-09-09T00:17:17;14.90;99.90
8563;DHT22;16392;52.508;13.468;2022-09-09T00:19:50;14.90;99.90
8563;DHT22;16392;52.508;13.468;2022-09-09T00:22:22;14.80;99.90
8563;DHT22;16392;52.508;13.468;2022-09-09T00:24:53;14.80;99.90
8563;DHT22;16392;52.508;13.468;2022-09-09T00:27:26;14.80;99.90
8563;DHT22;16392;52.508;13.468;2022-09-09T00:30:00;14.80;99.90
8563;DHT22;16392;52.508;13.468;2022-09-09T00:32:30;14.80;99.90
8563;DHT22;16392;52.508;13.468;2022-09-09T00:35:02;14.80;99.90
8563;DHT22;16392;52.508;13.468;2022-09-09T00:37:29;14.80;99.90
8563;DHT22;16392;52.508;13.468;2022-09-09T00:40:02;14.80;99.90
8563;DHT22;16392;52.508;13.468;2022-09-09T00:42:40;14.70;99.90
8563;DHT22;16392;52.508;13.468;2022-09-09T00:45:17;14.70;99.90
8563;DHT22;16392;52.508;13.468;2022-09-09T00:47:50;14.70;99.90
8563;DHT22;16392;52.508;13.468;2022-09-09T00:50:29;14.70;99.90
8563;DHT22;16392;52.508;13.468;2022-09-09T00:53:05;14.70;99.90
8563;DHT22;16392;52.508;13.468;2022-09-09T00:55:41;14.70;99.90
8563;DHT22;16392;52.508;13.468;2022-09-09T00:58:11;14.60;99.90
8563;DHT22;16392;52.508;13.468;2022-09-09T01:00:43;14.60;99.90
8563;DHT22;16392;52.508;13.468;2022-09-09T01:03:32;14.60;99.90
8563;DHT22;16392;52.508;13.468;2022-09-09T01:06:14;14.60;99.90
8563;DHT22;16392;52.508;13.468;2022-09-09T01:08:58;14.60;99.90
8563;DHT22;16392;52.508;13.468;2022-09-09T01:11:33;14.50;99.90
8563;DHT22;16392;52.508;13.468;2022-09-09T01:14:11;14.50;99.90
8563;DHT22;16392;52.508;13.468;2022-09-09T01:16:40;14.40;99.90
8563;DHT22;16392;52.508;13.468;2022-09-09T01:19:15;14.40;99.90
8563;DHT22;16392;52.508;13.468;2022-09-09T01:21:49;14.40;99.90
8563;DHT22;16392;52.508;13.468;2022-09-09T01:24:23;14.40;99.90
8563;DHT22;16392;52.508;13.468;2022-09-09T01:26:54;14.40;99.90
8563;DHT22;16392;52.508;13.468;2022-09-09T01:29:23;14.20;99.90
8563;DHT22;16392;52.508;13.468;2022-09-09T01:31:56;14.30;99.90
8563;DHT22;16392;52.508;13.468;2022-09-09T01:34:25;14.30;99.90
8563;DHT22;16392;52.508;13.468;2022-09-09T01:36:57;14.20;99.90
8563;DHT22;16392;52.508;13.468;2022-09-09T01:39:25;14.30;99.90
8563;DHT22;16392;52.508;13.468;2022-09-09T01:41:55;14.30;99.90
8563;DHT22;16392;52.508;13.468;2022-09-09T01:44:22;14.30;99.90
8563;DHT22;16392;52.508;13.468;2022-09-09T01:46:49;14.20;99.90
8563;DHT22;16392;52.508;13.468;2022-09-09T01:49:17;14.20;99.90
8563;DHT22;16392;52.508;13.468;2022-09-09T01:51:45;14.20;99.90
8563;DHT22;16392;52.508;13.468;2022-09-09T01:54:13;14.20;99.90
8563;DHT22;16392;52.508;13.468;2022-09-09T01:56:46;14.20;99.90
8563;DHT22;16392;52.508;13.468;2022-09-09T01:59:27;14.10;99.90
8563;DHT22;16392;52.508;13.468;2022-09-09T02:02:05;14.00;99.90
8563;DHT22;16392;52.508;13.468;2022-09-09T02:04:38;14.00;99.90
8563;DHT22;16392;52.508;13.468;2022-09-09T02:07:15;14.10;99.90
8563;DHT22;16392;52.508;13.468;2022-09-09T02:09:49;14.10;99.90
8563;DHT22;16392;52.508;13.468;2022-09-09T02:12:19;14.00;99.90
8563;DHT22;16392;52.508;13.468;2022-09-09T02:14:52;14.00;99.90
8563;DHT22;16392;52.508;13.468;2022-09-09T02:17:25;14.10;99.90
8563;DHT22;16392;52.508;13.468;2022-09-09T02:19:57;14.00;99.90
8563;DHT22;16392;52.508;13.468;2022-09-09T02:22:27;14.00;99.90
8563;DHT22;16392;52.508;13.468;2022-09-09T02:24:58;14.00;99.90
8563;DHT22;16392;52.508;13.468;2022-09-09T02:27:26;14.00;99.90
8563;DHT22;16392;52.508;13.468;2022-09-09T02:29:56;13.90;99.90
8563;DHT22;16392;52.508;13.468;2022-09-09T02:32:25;13.80;99.90
8563;DHT22;16392;52.508;13.468;2022-09-09T02:34:56;13.70;99.90
8563;DHT22;16392;52.508;13.468;2022-09-09T02:37:29;13.70;99.90
8563;DHT22;16392;52.508;13.468;2022-09-09T02:39:58;13.80;99.90
8563;DHT22;16392;52.508;13.468;2022-09-09T02:42:25;13.80;99.90
8563;DHT22;16392;52.508;13.468;2022-09-09T02:44:53;13.80;99.90
8563;DHT22;16392;52.508;13.468;2022-09-09T02:47:26;13.90;99.90
8563;DHT22;16392;52.508;13.468;2022-09-09T02:50:06;13.80;99.90
8563;DHT22;16392;52.508;13.468;2022-09-09T02:52:42;13.90;99.90
8563;DHT22;16392;52.508;13.468;2022-09-09T02:55:17;13.80;99.90
8563;DHT22;16392;52.508;13.468;2022-09-09T02:57:47;13.90;99.90
8563;DHT22;16392;52.508;13.468;2022-09-09T03:00:16;13.90;99.90
8563;DHT22;16392;52.508;13.468;2022-09-09T03:02:43;13.80;99.90
8563;DHT22;16392;52.508;13.468;2022-09-09T03:05:10;13.70;99.90
8563;DHT22;16392;52.508;13.468;2022-09-09T03:07:38;13.80;99.90
8563;DHT22;16392;52.508;13.468;2022-09-09T03:10:06;13.80;99.90
8563;DHT22;16392;52.508;13.468;2022-09-09T03:12:33;13.80;99.90
8563;DHT22;16392;52.508;13.468;2022-09-09T03:15:00;13.80;99.90
8563;DHT22;16392;52.508;13.468;2022-09-09T03:17:28;13.80;99.90
8563;DHT22;16392;52.508;13.468;2022-09-09T03:19:54;13.80;99.90
8563;DHT22;16392;52.508;13.468;2022-09-09T03:22:24;13.70;99.90
8563;DHT22;16392;52.508;13.468;2022-09-09T03:24:50;13.80;99.90
8563;DHT22;16392;52.508;13.468;2022-09-09T03:27:17;13.70;99.90
8563;DHT22;16392;52.508;13.468;2022-09-09T03:29:45;13.80;99.90
8563;DHT22;16392;52.508;13.468;2022-09-09T03:32:12;13.70;99.90
8563;DHT22;16392;52.508;13.468;2022-09-09T03:34:44;13.70;99.90
8563;DHT22;16392;52.508;13.468;2022-09-09T03:37:15;13.70;99.90
8563;DHT22;16392;52.508;13.468;2022-09-09T03:39:43;13.70;99.90
8563;DHT22;16392;52.508;13.468;2022-09-09T03:42:11;13.70;99.90
8563;DHT22;16392;52.508;13.468;2022-09-09T03:44:39;13.70;99.90
8563;DHT22;16392;52.508;13.468;2022-09-09T03:47:07;13.60;99.90
8563;DHT22;16392;52.508;13.468;2022-09-09T03:49:34;13.60;99.90
8563;DHT22;16392;52.508;13.468;2022-09-09T03:52:02;13.60;99.90
8563;DHT22;16392;52.508;13.468;2022-09-09T03:54:28;13.60;99.90
8563;DHT22;16392;52.508;13.468;2022-09-09T03:56:55;13.50;99.90
8563;DHT22;16392;52.508;13.468;2022-09-09T03:59:21;13.50;99.90
8563;DHT22;16392;52.508;13.468;2022-09-09T04:01:48;13.50;99.90
8563;DHT22;16392;52.508;13.468;2022-09-09T04:04:15;13.50;99.90
8563;DHT22;16392;52.508;13.468;2022-09-09T04:06:41;13.50;99.90
8563;DHT22;16392;52.508;13.468;2022-09-09T04:09:09;13.50;99.90
8563;DHT22;16392;52.508;13.468;2022-09-09T04:11:36;13.50;99.90
8563;DHT22;16392;52.508;13.468;2022-09-09T04:14:03;13.40;99.90
8563;DHT22;16392;52.508;13.468;2022-09-09T04:16:31;13.40;99.90
8563;DHT22;16392;52.508;13.468;2022-09-09T04:18:58;13.30;99.90
8563;DHT22;16392;52.508;13.468;2022-09-09T04:21:25;13.40;99.90
8563;DHT22;16392;52.508;13.468;2022-09-09T04:23:51;13.30;99.90
8563;DHT22;16392;52.508;13.468;2022-09-09T04:26:19;13.40;99.90
8563;DHT22;16392;52.508;13.468;2022-09-09T04:28:46;13.40;99.90
8563;DHT22;16392;52.508;13.468;2022-09-09T04:31:16;13.40;99.90
8563;DHT22;16392;52.508;13.468;2022-09-09T04:33:44;13.50;99.90
8563;DHT22;16392;52.508;13.468;2022-09-09T04:36:11;13.60;99.90
8563;DHT22;16392;52.508;13.468;2022-09-09T04:38:38;13.50;99.90
8563;DHT22;16392;52.508;13.468;2022-09-09T04:41:05;13.50;99.90
8563;DHT22;16392;52.508;13.468;2022-09-09T04:43:34;13.50;99.90
8563;DHT22;16392;52.508;13.468;2022-09-09T04:46:01;13.60;99.90
8563;DHT22;16392;52.508;13.468;2022-09-09T04:48:27;13.70;99.90
8563;DHT22;16392;52.508;13.468;2022-09-09T04:50:55;14.00;99.90
8563;DHT22;16392;52.508;13.468;2022-09-09T04:53:22;14.20;99.90
8563;DHT22;16392;52.508;13.468;2022-09-09T04:55:49;14.30;99.90
8563;DHT22;16392;52.508;13.468;2022-09-09T04:58:16;14.50;99.90
8563;DHT22;16392;52.508;13.468;2022-09-09T05:00:44;14.60;99.90
8563;DHT22;16392;52.508;13.468;2022-09-09T05:03:10;14.80;99.90
8563;DHT22;16392;52.508;13.468;2022-09-09T05:05:38;15.10;99.90
8563;DHT22;16392;52.508;13.468;2022-09-09T05:08:06;15.40;99.90
8563;DHT22;16392;52.508;13.468;2022-09-09T05:10:34;15.60;99.90
8563;DHT22;16392;52.508;13.468;2022-09-09T05:13:02;15.90;99.90
8563;DHT22;16392;52.508;13.468;2022-09-09T05:15:29;16.00;99.90
8563;DHT22;16392;52.508;13.468;2022-09-09T05:17:58;16.20;99.90
8563;DHT22;16392;52.508;13.468;2022-09-09T05:20:25;16.30;99.90
8563;DHT22;16392;52.508;13.468;2022-09-09T05:22:52;16.80;99.90
8563;DHT22;16392;52.508;13.468;2022-09-09T05:25:19;17.00;99.90
8563;DHT22;16392;52.508;13.468;2022-09-09T05:27:47;17.30;99.90
8563;DHT22;16392;52.508;13.468;2022-09-09T05:30:15;17.40;99.90
8563;DHT22;16392;52.508;13.468;2022-09-09T05:32:42;17.50;99.90
8563;DHT22;16392;52.508;13.468;2022-09-09T05:35:10;18.00;99.90
8563;DHT22;16392;52.508;13.468;2022-09-09T05:37:36;18.30;99.90
8563;DHT22;16392;52.508;13.468;2022-09-09T05:40:03;18.30;99.90
8563;DHT22;16392;52.508;13.468;2022-09-09T05:42:30;18.20;99.90
8563;DHT22;16392;52.508;13.468;2022-09-09T05:44:58;18.50;99.90
8563;DHT22;16392;52.508;13.468;2022-09-09T05:47:24;19.00;99.90
8563;DHT22;16392;52.508;13.468;2022-09-09T05:49:53;19.80;99.90
8563;DHT22;16392;52.508;13.468;2022-09-09T05:52:21;20.60;99.90
8563;DHT22;16392;52.508;13.468;2022-09-09T05:54:49;21.30;75.40
8563;DHT22;16392;52.508;13.468;2022-09-09T05:57:15;21.20;1.00
8563;DHT22;16392;52.508;13.468;2022-09-09T05:59:42;20.80;1.00
8563;DHT22;16392;52.508;13.468;2022-09-09T06:02:09;21.40;1.00
8563;DHT22;16392;52.508;13.468;2022-09-09T06:04:35;21.40;1.00
8563;DHT22;16392;52.508;13.468;2022-09-09T06:07:02;21.10;1.00
8563;DHT22;16392;52.508;13.468;2022-09-09T06:09:30;21.20;1.00
8563;DHT22;16392;52.508;13.468;2022-09-09T06:11:57;21.10;1.00
8563;DHT22;16392;52.508;13.468;2022-09-09T06:14:24;20.30;1.00
8563;DHT22;16392;52.508;13.468;2022-09-09T06:16:52;20.00;1.00
8563;DHT22;16392;52.508;13.468;2022-09-09T06:19:19;19.70;23.50
8563;DHT22;16392;52.508;13.468;2022-09-09T06:21:46;19.60;96.70
8563;DHT22;16392;52.508;13.468;2022-09-09T06:24:13;19.90;32.00
8563;DHT22;16392;52.508;13.468;2022-09-09T06:26:44;21.10;1.00
8563;DHT22;16392;52.508;13.468;2022-09-09T06:29:11;21.40;1.00
8563;DHT22;16392;52.508;13.468;2022-09-09T06:31:38;21.20;1.00
8563;DHT22;16392;52.508;13.468;2022-09-09T06:34:06;20.80;1.00
8563;DHT22;16392;52.508;13.468;2022-09-09T06:36:34;21.10;1.00
8563;DHT22;16392;52.508;13.468;2022-09-09T06:39:02;21.50;99.90
8563;DHT22;16392;52.508;13.468;2022-09-09T06:41:30;21.50;99.90
8563;DHT22;16392;52.508;13.468;2022-09-09T06:43:59;21.40;1.00
8563;DHT22;16392;52.508;13.468;2022-09-09T06:46:27;21.60;99.90
8563;DHT22;16392;52.508;13.468;2022-09-09T06:48:56;20.50;1.00
8563;DHT22;16392;52.508;13.468;2022-09-09T06:51:25;19.60;1.00
8563;DHT22;16392;52.508;13.468;2022-09-09T06:53:53;20.00;1.00
8563;DHT22;16392;52.508;13.468;2022-09-09T06:56:23;20.60;1.00
8563;DHT22;16392;52.508;13.468;2022-09-09T06:58:51;20.50;1.00
8563;DHT22;16392;52.508;13.468;2022-09-09T07:01:21;20.50;1.00
8563;DHT22;16392;52.508;13.468;2022-09-09T07:03:50;21.50;1.00
8563;DHT22;16392;52.508;13.468;2022-09-09T07:06:19;22.70;1.00
8563;DHT22;16392;52.508;13.468;2022-09-09T07:08:49;22.00;99.90
8563;DHT22;16392;52.508;13.468;2022-09-09T07:11:16;22.10;1.00
8563;DHT22;16392;52.508;13.468;2022-09-09T07:13:43;22.80;1.00
8563;DHT22;16392;52.508;13.468;2022-09-09T07:16:11;22.50;1.00
8563;DHT22;16392;52.508;13.468;2022-09-09T07:18:40;23.30;1.00
8563;DHT22;16392;52.508;13.468;2022-09-09T07:21:09;23.50;22.50
8563;DHT22;16392;52.508;13.468;2022-09-09T07:23:35;23.80;1.00
8563;DHT22;16392;52.508;13.468;2022-09-09T07:26:02;24.00;99.90
8563;DHT22;16392;52.508;13.468;2022-09-09T07:28:29;24.80;99.90
8563;DHT22;16392;52.508;13.468;2022-09-09T07:30:57;25.20;1.00
8563;DHT22;16392;52.508;13.468;2022-09-09T07:33:26;24.70;1.00
8563;DHT22;16392;52.508;13.468;2022-09-09T07:36:03;23.60;1.00
8563;DHT22;16392;52.508;13.468;2022-09-09T07:38:30;23.00;1.00
8563;DHT22;16392;52.508;13.468;2022-09-09T07:41:03;23.00;99.90
8563;DHT22;16392;52.508;13.468;2022-09-09T07:43:30;23.80;1.00
8563;DHT22;16392;52.508;13.468;2022-09-09T07:45:58;24.90;1.00
8563;DHT22;16392;52.508;13.468;2022-09-09T07:48:25;25.40;1.00
8563;DHT22;16392;52.508;13.468;2022-09-09T07:50:52;26.00;1.00
8563;DHT22;16392;52.508;13.468;2022-09-09T07:53:20;26.20;1.00
8563;DHT22;16392;52.508;13.468;2022-09-09T07:55:48;26.00;1.00
8563;DHT22;16392;52.508;13.468;2022-09-09T07:58:14;25.20;99.90
8563;DHT22;16392;52.508;13.468;2022-09-09T08:00:41;25.40;99.90
8563;DHT22;16392;52.508;13.468;2022-09-09T08:03:09;25.10;99.90
8563;DHT22;16392;52.508;13.468;2022-09-09T08:05:35;25.30;1.00
8563;DHT22;16392;52.508;13.468;2022-09-09T08:08:02;25.80;99.90
8563;DHT22;16392;52.508;13.468;2022-09-09T08:10:31;25.10;1.00
8563;DHT22;16392;52.508;13.468;2022-09-09T08:12:57;24.70;1.00
8563;DHT22;16392;52.508;13.468;2022-09-09T08:15:24;23.90;1.00
8563;DHT22;16392;52.508;13.468;2022-09-09T08:17:50;23.40;1.00
8563;DHT22;16392;52.508;13.468;2022-09-09T08:20:23;23.00;1.00
8563;DHT22;16392;52.508;13.468;2022-09-09T08:22:51;23.30;1.00
8563;DHT22;16392;52.508;13.468;2022-09-09T08:25:18;23.30;1.00
8563;DHT22;16392;52.508;13.468;2022-09-09T08:27:46;21.90;99.90
8563;DHT22;16392;52.508;13.468;2022-09-09T08:30:12;21.30;99.90
8563;DHT22;16392;52.508;13.468;2022-09-09T08:32:39;21.00;99.90
8563;DHT22;16392;52.508;13.468;2022-09-09T08:35:07;20.90;1.00
8563;DHT22;16392;52.508;13.468;2022-09-09T08:37:34;20.90;1.00
8563;DHT22;16392;52.508;13.468;2022-09-09T08:40:00;20.80;1.00
8563;DHT22;16392;52.508;13.468;2022-09-09T08:42:36;21.00;1.00
8563;DHT22;16392;52.508;13.468;2022-09-09T08:45:25;20.80;1.00
8563;DHT22;16392;52.508;13.468;2022-09-09T08:48:04;20.90;1.00
8563;DHT22;16392;52.508;13.468;2022-09-09T08:50:35;20.90;1.00
8563;DHT22;16392;52.508;13.468;2022-09-09T08:53:08;21.00;1.00
8563;DHT22;16392;52.508;13.468;2022-09-09T08:55:41;20.60;1.00
8563;DHT22;16392;52.508;13.468;2022-09-09T08:58:13;20.20;1.00
8563;DHT22;16392;52.508;13.468;2022-09-09T09:00:57;19.90;1.00
8563;DHT22;16392;52.508;13.468;2022-09-09T09:03:33;20.00;1.00
8563;DHT22;16392;52.508;13.468;2022-09-09T09:06:06;20.00;1.00
8563;DHT22;16392;52.508;13.468;2022-09-09T09:08:39;20.30;1.00
8563;DHT22;16392;52.508;13.468;2022-09-09T09:11:11;21.20;1.00
8563;DHT22;16392;52.508;13.468;2022-09-09T09:13:42;21.80;99.90
8563;DHT22;16392;52.508;13.468;2022-09-09T09:16:19;21.80;99.90
8563;DHT22;16392;52.508;13.468;2022-09-09T09:18:50;23.00;1.00
8563;DHT22;16392;52.508;13.468;2022-09-09T09:21:21;23.60;68.50
8563;DHT22;16392;52.508;13.468;2022-09-09T09:23:56;23.60;99.90
8563;DHT22;16392;52.508;13.468;2022-09-09T09:26:26;23.50;99.90
8563;DHT22;16392;52.508;13.468;2022-09-09T09:28:56;23.10;99.90
8563;DHT22;16392;52.508;13.468;2022-09-09T09:31:25;23.80;99.90
8563;DHT22;16392;52.508;13.468;2022-09-09T09:33:54;23.70;1.00
8563;DHT22;16392;52.508;13.468;2022-09-09T09:36:24;23.90;1.00
8563;DHT22;16392;52.508;13.468;2022-09-09T09:38:54;24.80;1.00
8563;DHT22;16392;52.508;13.468;2022-09-09T09:41:32;24.80;99.90
8563;DHT22;16392;52.508;13.468;2022-09-09T09:44:00;24.60;1.00
8563;DHT22;16392;52.508;13.468;2022-09-09T09:46:29;24.50;1.00
8563;DHT22;16392;52.508;13.468;2022-09-09T09:48:59;24.50;99.90
8563;DHT22;16392;52.508;13.468;2022-09-09T09:51:26;24.70;99.90
8563;DHT22;16392;52.508;13.468;2022-09-09T09:54:04;24.40;1.00
8563;DHT22;16392;52.508;13.468;2022-09-09T09:56:35;24.30;1.00
8563;DHT22;16392;52.508;13.468;2022-09-09T09:59:03;24.20;1.00
8563;DHT22;16392;52.508;13.468;2022-09-09T10:01:32;24.50;1.00
8563;DHT22;16392;52.508;13.468;2022-09-09T10:04:01;25.50;1.00
8563;DHT22;16392;52.508;13.468;2022-09-09T10:06:30;25.80;1.00
8563;DHT22;16392;52.508;13.468;2022-09-09T10:08:57;26.30;1.00
8563;DHT22;16392;52.508;13.468;2022-09-09T10:11:39;26.20;1.00
8563;DHT22;16392;52.508;13.468;2022-09-09T10:14:18;25.10;99.90
8563;DHT22;16392;52.508;13.468;2022-09-09T10:16:56;25.10;99.90
8563;DHT22;16392;52.508;13.468;2022-09-09T10:19:30;24.00;1.00
8563;DHT22;16392;52.508;13.468;2022-09-09T10:22:19;23.80;1.00
8563;DHT22;16392;52.508;13.468;2022-09-09T10:25:01;23.90;99.90
8563;DHT22;16392;52.508;13.468;2022-09-09T10:27:38;23.90;1.00
8563;DHT22;16392;52.508;13.468;2022-09-09T10:30:14;24.60;99.90
8563;DHT22;16392;52.508;13.468;2022-09-09T10:32:48;24.20;1.00
8563;DHT22;16392;52.508;13.468;2022-09-09T10:35:30;24.40;99.90
8563;DHT22;16392;52.508;13.468;2022-09-09T10:38:16;24.50;1.00
8563;DHT22;16392;52.508;13.468;2022-09-09T10:41:00;24.50;99.90
8563;DHT22;16392;52.508;13.468;2022-09-09T10:46:37;23.90;1.00
8563;DHT22;16392;52.508;13.468;2022-09-09T10:49:17;24.00;1.00
8563;DHT22;16392;52.508;13.468;2022-09-09T10:51:55;24.40;1.00
8563;DHT22;16392;52.508;13.468;2022-09-09T10:54:33;23.50;1.00
8563;DHT22;16392;52.508;13.468;2022-09-09T10:57:05;23.00;99.90
8563;DHT22;16392;52.508;13.468;2022-09-09T10:59:38;22.80;1.00
8563;DHT22;16392;52.508;13.468;2022-09-09T11:02:13;23.60;99.90
8563;DHT22;16392;52.508;13.468;2022-09-09T11:04:47;24.20;26.40
8563;DHT22;16392;52.508;13.468;2022-09-09T11:07:23;24.70;99.90
8563;DHT22;16392;52.508;13.468;2022-09-09T11:09:57;25.10;99.90
8563;DHT22;16392;52.508;13.468;2022-09-09T11:12:27;25.40;99.90
8563;DHT22;16392;52.508;13.468;2022-09-09T11:14:59;25.20;99.90
8563;DHT22;16392;52.508;13.468;2022-09-09T11:17:42;25.40;99.90
8563;DHT22;16392;52.508;13.468;2022-09-09T11:20:13;25.10;99.90
8563;DHT22;16392;52.508;13.468;2022-09-09T11:22:46;24.50;1.00
8563;DHT22;16392;52.508;13.468;2022-09-09T11:25:16;24.90;99.90
8563;DHT22;16392;52.508;13.468;2022-09-09T11:27:59;24.30;99.90
8563;DHT22;16392;52.508;13.468;2022-09-09T11:30:38;23.80;1.00
8563;DHT22;16392;52.508;13.468;2022-09-09T11:38:58;23.50;99.90
8563;DHT22;16392;52.508;13.468;2022-09-09T11:41:34;23.80;1.00
8563;DHT22;16392;52.508;13.468;2022-09-09T11:44:10;23.50;1.00
8563;DHT22;16392;52.508;13.468;2022-09-09T11:46:38;23.50;99.90
8563;DHT22;16392;52.508;13.468;2022-09-09T11:49:26;23.90;99.90
8563;DHT22;16392;52.508;13.468;2022-09-09T11:51:54;23.90;1.00
8563;DHT22;16392;52.508;13.468;2022-09-09T11:54:30;24.30;1.00
8563;DHT22;16392;52.508;13.468;2022-09-09T11:56:57;24.20;1.00
8563;DHT22;16392;52.508;13.468;2022-09-09T11:59:27;24.10;1.00
8563;DHT22;16392;52.508;13.468;2022-09-09T12:01:58;24.20;99.90
8563;DHT22;16392;52.508;13.468;2022-09-09T12:04:29;24.70;1.00
8563;DHT22;16392;52.508;13.468;2022-09-09T12:07:00;24.50;1.00
8563;DHT22;16392;52.508;13.468;2022-09-09T12:09:33;23.70;1.00
8563;DHT22;16392;52.508;13.468;2022-09-09T12:12:16;23.80;1.00
8563;DHT22;16392;52.508;13.468;2022-09-09T12:14:56;24.40;1.00
8563;DHT22;16392;52.508;13.468;2022-09-09T12:17:26;24.70;1.00
8563;DHT22;16392;52.508;13.468;2022-09-09T12:20:09;24.00;1.00
8563;DHT22;16392;52.508;13.468;2022-09-09T12:22:51;24.00;1.00
8563;DHT22;16392;52.508;13.468;2022-09-09T12:25:26;24.20;99.90
8563;DHT22;16392;52.508;13.468;2022-09-09T12:28:03;24.50;99.90
8563;DHT22;16392;52.508;13.468;2022-09-09T12:30:36;25.10;20.70
8563;DHT22;16392;52.508;13.468;2022-09-09T12:33:10;24.70;1.00
8563;DHT22;16392;52.508;13.468;2022-09-09T12:35:39;24.20;99.90
8563;DHT22;16392;52.508;13.468;2022-09-09T12:38:15;24.30;99.90
8563;DHT22;16392;52.508;13.468;2022-09-09T12:40:54;24.00;99.90
8563;DHT22;16392;52.508;13.468;2022-09-09T12:43:23;23.60;99.90
8563;DHT22;16392;52.508;13.468;2022-09-09T12:45:52;23.60;1.00
8563;DHT22;16392;52.508;13.468;2022-09-09T12:48:27;23.50;1.00
8563;DHT22;16392;52.508;13.468;2022-09-09T12:50:55;23.40;1.00
8563;DHT22;16392;52.508;13.468;2022-09-09T12:53:25;23.30;99.90
8563;DHT22;16392;52.508;13.468;2022-09-09T12:55:56;23.10;1.00
8563;DHT22;16392;52.508;13.468;2022-09-09T12:58:24;23.20;99.90
8563;DHT22;16392;52.508;13.468;2022-09-09T13:00:53;23.20;99.90
8563;DHT22;16392;52.508;13.468;2022-09-09T13:03:22;23.40;1.00
8563;DHT22;16392;52.508;13.468;2022-09-09T13:05:51;23.50;1.00
8563;DHT22;16392;52.508;13.468;2022-09-09T13:08:19;23.40;99.90
8563;DHT22;16392;52.508;13.468;2022-09-09T13:10:50;23.40;1.00
8563;DHT22;16392;52.508;13.468;2022-09-09T13:13:21;23.30;1.00
8563;DHT22;16392;52.508;13.468;2022-09-09T13:15:50;23.10;1.00
8563;DHT22;16392;52.508;13.468;2022-09-09T13:18:21;23.10;1.00
8563;DHT22;16392;52.508;13.468;2022-09-09T13:20:49;23.40;1.00
8563;DHT22;16392;52.508;13.468;2022-09-09T13:23:18;23.60;99.90
8563;DHT22;16392;52.508;13.468;2022-09-09T13:25:55;23.60;99.90
8563;DHT22;16392;52.508;13.468;2022-09-09T13:28:23;23.60;99.90
8563;DHT22;16392;52.508;13.468;2022-09-09T13:30:57;23.50;99.90
8563;DHT22;16392;52.508;13.468;2022-09-09T13:33:32;23.50;1.00
8563;DHT22;16392;52.508;13.468;2022-09-09T13:36:02;23.80;1.00
8563;DHT22;16392;52.508;13.468;2022-09-09T13:38:32;24.00;99.90
8563;DHT22;16392;52.508;13.468;2022-09-09T13:41:03;24.20;99.90
8563;DHT22;16392;52.508;13.468;2022-09-09T13:43:34;24.50;99.90
8563;DHT22;16392;52.508;13.468;2022-09-09T13:46:04;24.30;1.00
8563;DHT22;16392;52.508;13.468;2022-09-09T13:48:31;24.40;1.00
8563;DHT22;16392;52.508;13.468;2022-09-09T13:51:01;24.50;1.00
8563;DHT22;16392;52.508;13.468;2022-09-09T13:53:28;24.50;1.00
8563;DHT22;16392;52.508;13.468;2022-09-09T13:55:56;24.80;99.90
8563;DHT22;16392;52.508;13.468;2022-09-09T13:58:25;25.10;99.90
8563;DHT22;16392;52.508;13.468;2022-09-09T14:00:52;25.50;99.90
8563;DHT22;16392;52.508;13.468;2022-09-09T14:03:19;24.80;99.90
8563;DHT22;16392;52.508;13.468;2022-09-09T14:05:46;24.50;1.00
8563;DHT22;16392;52.508;13.468;2022-09-09T14:08:25;24.10;30.00
8563;DHT22;16392;52.508;13.468;2022-09-09T14:10:53;23.50;1.00
8563;DHT22;16392;52.508;13.468;2022-09-09T14:13:20;23.30;99.90
8563;DHT22;16392;52.508;13.468;2022-09-09T14:15:49;23.20;1.00
8563;DHT22;16392;52.508;13.468;2022-09-09T14:18:16;23.20;1.00
8563;DHT22;16392;52.508;13.468;2022-09-09T14:20:43;23.30;99.90
8563;DHT22;16392;52.508;13.468;2022-09-09T14:23:11;23.40;1.00
8563;DHT22;16392;52.508;13.468;2022-09-09T14:25:40;23.50;1.00
8563;DHT22;16392;52.508;13.468;2022-09-09T14:28:11;23.20;99.90
8563;DHT22;16392;52.508;13.468;2022-09-09T14:30:39;23.00;1.00
8563;DHT22;16392;52.508;13.468;2022-09-09T14:33:10;22.90;1.00
8563;DHT22;16392;52.508;13.468;2022-09-09T14:35:37;23.20;1.00
8563;DHT22;16392;52.508;13.468;2022-09-09T14:38:07;23.10;99.90
8563;DHT22;16392;52.508;13.468;2022-09-09T14:40:34;23.00;99.90
8563;DHT22;16392;52.508;13.468;2022-09-09T14:43:01;23.20;99.90
8563;DHT22;16392;52.508;13.468;2022-09-09T14:45:28;23.30;99.90
8563;DHT22;16392;52.508;13.468;2022-09-09T14:47:55;23.50;1.00
8563;DHT22;16392;52.508;13.468;2022-09-09T14:50:24;23.60;1.00
8563;DHT22;16392;52.508;13.468;2022-09-09T14:52:50;23.20;1.00
8563;DHT22;16392;52.508;13.468;2022-09-09T14:55:17;23.00;99.90
8563;DHT22;16392;52.508;13.468;2022-09-09T14:57:44;22.90;1.00
8563;DHT22;16392;52.508;13.468;2022-09-09T15:00:11;22.80;1.00
8563;DHT22;16392;52.508;13.468;2022-09-09T15:02:39;22.70;99.90
8563;DHT22;16392;52.508;13.468;2022-09-09T15:05:06;22.70;99.90
8563;DHT22;16392;52.508;13.468;2022-09-09T15:07:35;22.60;99.90
8563;DHT22;16392;52.508;13.468;2022-09-09T15:10:02;22.80;1.00
8563;DHT22;16392;52.508;13.468;2022-09-09T15:12:29;22.70;1.00
8563;DHT22;16392;52.508;13.468;2022-09-09T15:14:57;22.70;1.00
8563;DHT22;16392;52.508;13.468;2022-09-09T15:17:23;22.70;1.00
8563;DHT22;16392;52.508;13.468;2022-09-09T15:19:51;22.60;99.90
8563;DHT22;16392;52.508;13.468;2022-09-09T15:22:18;22.80;99.90
8563;DHT22;16392;52.508;13.468;2022-09-09T15:24:46;23.00;1.00
8563;DHT22;16392;52.508;13.468;2022-09-09T15:27:12;23.10;1.00
8563;DHT22;16392;52.508;13.468;2022-09-09T15:29:39;23.40;1.00
8563;DHT22;16392;52.508;13.468;2022-09-09T15:32:07;23.40;99.90
8563;DHT22;16392;52.508;13.468;2022-09-09T15:34:33;23.60;1.00
8563;DHT22;16392;52.508;13.468;2022-09-09T15:37:00;23.40;1.00
8563;DHT22;16392;52.508;13.468;2022-09-09T15:39:27;23.40;1.00
8563;DHT22;16392;52.508;13.468;2022-09-09T15:41:55;23.30;99.90
8563;DHT22;16392;52.508;13.468;2022-09-09T15:44:21;23.30;99.90
8563;DHT22;16392;52.508;13.468;2022-09-09T15:46:52;23.20;99.90
8563;DHT22;16392;52.508;13.468;2022-09-09T15:49:21;23.00;99.90
8563;DHT22;16392;52.508;13.468;2022-09-09T15:51:52;22.90;1.00
8563;DHT22;16392;52.508;13.468;2022-09-09T15:54:20;22.80;99.90
8563;DHT22;16392;52.508;13.468;2022-09-09T15:56:51;22.80;1.00
8563;DHT22;16392;52.508;13.468;2022-09-09T15:59:19;22.70;99.90
8563;DHT22;16392;52.508;13.468;2022-09-09T16:01:46;22.60;99.90
8563;DHT22;16392;52.508;13.468;2022-09-09T16:04:13;22.60;1.00
8563;DHT22;16392;52.508;13.468;2022-09-09T16:06:41;22.60;33.70